43分钟前
罗盘
风向 的 风向 030° Clovis Municipal Airport 4/22
风: 9 千吨, 3 beaufort
0 500 1.500 3.000 5.000 8.000 10.000
OVC 2.500 ft
METAR KCVN 201556Z AUTO 03009KT 10SM OVC025 M09/M13 A3048 RMK AO2 SNB24E50 SLP372 P0000 T10941128 FZRANO

METAR定义 | 嵌入

24小时趋势

航班类别VFRLIFR
温度3 °C-9 °C
风速23 千吨0 千吨
能见度16 公里0 米

更多历史数据

下载我们的安卓应用程序

从你的主屏幕上轻松地访问你的航空天气。
只需一次付费,您就可以获得无广告的体验。

您会帮助我们保持Metar-Taf.com正常运行吗?
您的贡献有助于网站的进一步开发并支付费用。

没有更多广告

您是捐款5美元还是更多?然后,我们将永远不会再向您展示广告,这是我们永恒的感谢!
捐赠前先登录

METAR Clovis Municipal Airport

Clovis Municipal Airport是Clovis,美国中的小机场。 机场有{a,plural,=1{一条跑道} other{#跑道}}: 4/22, 8/26 和 12/30

该报告是针对2022年1月20日 08:56, 当地时间上的Clovis Municipal Airport所做的。

机场观察

风来自北北东 (030°)方向,速度为9 千吨。

可见度为16 公里。

有乌云密布在2.500 ft的高度。 破损或更高的上限为2.500 ft。

温度为-9 °C,阵风为-18 °C。 露点为-13 °C,相对湿度为73%。 海平面上的气压为1032 压力 (QNH)。

评论

  • 自动气象站,可确定降水类型 (AO2)
  • 雪 开始于 24, 结束于 50 (SNB24E50)
  • 海平面压力为1037,2 压力 (SLP372)
  • 自从上次观察以来没有降雨 (P0000)
  • 温度为-9,4 °C,露点为-12,8 °C (T10941128)
  • FZRANO

白天

今天,太阳从06:56升起,在17:10降落。 这适用于Clovis Municipal Airport,世界夏令时可能有所不同。 当地时间与世界标准时间之间的时差为-7 小时。 当前,没有夏令时有效。

公司介绍

我们没有关于这个机场的公司信息。

体会

到Vliegles.nl去找飞行课程,跳伞和其他飞行体验。 浏览页面,了解Clovis Municipal Airport附近所有可用的活动。 你也可以使用搜索功能来寻找你所在地附近的特定飞行课程、跳伞或其他飞行体验。

您是否要在网站上Clovis Municipal Airport飞行的天气? 阅读更多   自由!